METAR Data
IDs: Format: Raw Decoded Include TAF

Data at: 0910 UTC 18 Jan 2019

PANN 180853Z AUTO 00000KT 10SM CLR M29/M33 A2987 RMK AO2 SLP135 T12941328 411671300 50001 TSNO
PANN 180753Z AUTO 00000KT 10SM CLR M30/M33 A2987 RMK AO2 SLP135 T13001328 TSNO
PANN 180653Z AUTO 00000KT 10SM CLR M29/M32 A2987 RMK AO2 SLP134 T12941322 TSNO
PANN 180553Z AUTO 00000KT 10SM CLR M29/M32 A2987 RMK AO2 SLP134 T12891322 11222 21294 58002 TSNO
PANN 180453Z AUTO 00000KT 10SM CLR M28/M32 A2987 RMK AO2 SLP133 T12831317 TSNO
PANN 180353Z AUTO 00000KT 10SM CLR M28/M31 A2987 RMK AO2 SLP135 T12781306 TSNO
PANN 180253Z AUTO 00000KT 10SM CLR M27/M31 A2987 RMK AO2 SLP135 T12721306 55001 TSNO
PANN 180153Z AUTO 00000KT 10SM CLR M26/M28 A2987 RMK AO2 SLP133 T12561283 TSNO
PANN 180053Z AUTO 00000KT 10SM CLR M24/M26 A2987 RMK AO2 SLP132 T12391261 TSNO
PANN 172353Z AUTO 00000KT 10SM CLR M22/M25 A2988 RMK AO2 SLP133 T12221250 11217 21283 56005 TSNO
PANN 172253Z AUTO 00000KT 10SM CLR M23/M26 A2988 RMK AO2 SLP134 T12281256 TSNO
PANN 172153Z AUTO 00000KT 10SM CLR M24/M27 A2988 RMK AO2 SLP136 T12391267 TSNO
PANN 172053Z AUTO 00000KT 10SM CLR M26/M29 A2989 RMK AO2 SLP138 T12611289 50002 TSNO
PANN 171953Z AUTO 00000KT 10SM CLR M28/M31 A2989 RMK AO2 SLP140 T12781311 TSNO
PANN 171853Z AUTO 00000KT 10SM CLR M28/M31 A2989 RMK AO2 SLP137 T12781311 TSNO
PANN 171753Z AUTO 00000KT 10SM CLR M27/M30 A2988 RMK AO2 SLP137 T12671300 11172 21272 55000 TSNO
PANN 171653Z AUTO 00000KT 10SM CLR M26/M29 A2988 RMK AO2 SLP135 T12611294 TSNO
PANN 171553Z AUTO 00000KT 10SM CLR M26/M28 A2988 RMK AO2 SLP135 T12561283 TSNO
PANN 171453Z AUTO 00000KT 10SM CLR M24/M27 A2988 RMK AO2 SLP136 T12391267 50000 TSNO
PANN 171353Z AUTO 00000KT 10SM CLR M22/M24 A2989 RMK AO2 SLP136 T12171239 TSNO
PANN 171253Z AUTO 00000KT 10SM CLR M21/M24 A2989 RMK AO2 SLP136 T12111239 TSNO
PANN 171153Z AUTO 30004KT 10SM CLR M22/M24 A2989 RMK AO2 SLP136 I1000 I6000 T12171239 11144 21222 50003 TSNO
PANN 171053Z AUTO 00000KT 10SM CLR M21/M23 A2989 RMK AO2 SLP136 T12061228 TSNO
PANN 170953Z AUTO 00000KT 10SM CLR M21/M23 A2988 RMK AO2 SLP133 T12061228 TSNO
PANN 170853Z AUTO 26003KT 10SM CLR M17/M19 A2988 RMK AO2 SLP133 T11671189 410891217 53004 TSNO
PANN 170753Z AUTO 00000KT 10SM CLR M17/M19 A2987 RMK AO2 SLP130 T11721194 TSNO
PANN 170653Z AUTO 00000KT 10SM CLR M16/M18 A2986 RMK AO2 SLP127 T11611183 TSNO
PANN 170553Z AUTO 31006KT 10SM CLR M14/M18 A2986 RMK AO2 SLP128 T11441178 11133 21156 53006 TSNO
PANN 170453Z AUTO 31006KT 10SM CLR M14/M17 A2986 RMK AO2 SLP125 T11441172 TSNO
PANN 170353Z AUTO 31006KT 10SM CLR M14/M17 A2985 RMK AO2 SLP122 T11391172 TSNO
PANN 170253Z AUTO 31006KT 10SM CLR M14/M17 A2985 RMK AO2 SLP122 T11441167 53000 TSNO
PANN 170153Z AUTO 27004KT 10SM CLR M14/M16 A2985 RMK AO2 SLP121 T11391161 TSNO
PANN 170053Z AUTO VRB03KT 10SM CLR M14/M17 A2984 RMK AO2 SLP120 T11441167 TSNO
PANN 162353Z AUTO 00000KT 10SM CLR M16/M17 A2985 RMK AO2 SLP121 T11561172 11089 21217 58003 TSNO
PANN 162253Z AUTO 00000KT 10SM CLR M15/M17 A2985 RMK AO2 SLP122 T11501167 TSNO
PANN 162153Z AUTO 36004KT 10SM CLR M12/M14 A2985 RMK AO2 SLP121 T11171144 TSNO